sensor_id;sensor_type;location;lat;lon;timestamp;P1;durP1;ratioP1;P2;durP2;ratioP2
12196;SDS011;6161;43.014;25.840;2022-11-20T00:00:23;2.30;;;1.30;;
12196;SDS011;6161;43.014;25.840;2022-11-20T00:02:48;3.03;;;1.57;;
12196;SDS011;6161;43.014;25.840;2022-11-20T00:05:14;2.77;;;1.60;;
12196;SDS011;6161;43.014;25.840;2022-11-20T00:07:39;3.47;;;1.90;;
12196;SDS011;6161;43.014;25.840;2022-11-20T00:10:05;3.23;;;1.70;;
12196;SDS011;6161;43.014;25.840;2022-11-20T00:12:31;1.70;;;1.50;;
12196;SDS011;6161;43.014;25.840;2022-11-20T00:14:56;2.13;;;1.60;;
12196;SDS011;6161;43.014;25.840;2022-11-20T00:17:21;4.07;;;1.60;;
12196;SDS011;6161;43.014;25.840;2022-11-20T00:19:47;1.60;;;1.47;;
12196;SDS011;6161;43.014;25.840;2022-11-20T00:22:12;1.53;;;1.33;;
12196;SDS011;6161;43.014;25.840;2022-11-20T00:24:37;1.60;;;1.50;;
12196;SDS011;6161;43.014;25.840;2022-11-20T00:27:03;4.57;;;1.70;;
12196;SDS011;6161;43.014;25.840;2022-11-20T00:29:28;2.53;;;1.63;;
12196;SDS011;6161;43.014;25.840;2022-11-20T00:31:53;3.37;;;1.67;;
12196;SDS011;6161;43.014;25.840;2022-11-20T00:34:18;3.47;;;1.60;;
12196;SDS011;6161;43.014;25.840;2022-11-20T00:36:44;5.30;;;1.63;;
12196;SDS011;6161;43.014;25.840;2022-11-20T00:39:09;2.87;;;1.70;;
12196;SDS011;6161;43.014;25.840;2022-11-20T00:41:34;2.87;;;2.03;;
12196;SDS011;6161;43.014;25.840;2022-11-20T00:44:00;2.07;;;1.57;;
12196;SDS011;6161;43.014;25.840;2022-11-20T00:46:26;2.00;;;1.80;;
12196;SDS011;6161;43.014;25.840;2022-11-20T00:48:52;3.47;;;1.87;;
12196;SDS011;6161;43.014;25.840;2022-11-20T00:51:19;2.63;;;1.70;;
12196;SDS011;6161;43.014;25.840;2022-11-20T00:53:44;5.27;;;2.50;;
12196;SDS011;6161;43.014;25.840;2022-11-20T00:56:12;2.60;;;1.97;;
12196;SDS011;6161;43.014;25.840;2022-11-20T00:58:40;3.20;;;1.87;;
12196;SDS011;6161;43.014;25.840;2022-11-20T01:01:10;2.40;;;1.53;;
12196;SDS011;6161;43.014;25.840;2022-11-20T01:03:39;2.30;;;1.50;;
12196;SDS011;6161;43.014;25.840;2022-11-20T01:08:42;1.87;;;1.37;;
12196;SDS011;6161;43.014;25.840;2022-11-20T01:11:09;5.83;;;1.80;;
12196;SDS011;6161;43.014;25.840;2022-11-20T01:13:43;2.70;;;1.63;;
12196;SDS011;6161;43.014;25.840;2022-11-20T01:16:13;1.90;;;1.30;;
12196;SDS011;6161;43.014;25.840;2022-11-20T01:18:42;2.93;;;1.67;;
12196;SDS011;6161;43.014;25.840;2022-11-20T01:21:16;4.47;;;1.57;;
12196;SDS011;6161;43.014;25.840;2022-11-20T01:23:42;3.47;;;1.53;;
12196;SDS011;6161;43.014;25.840;2022-11-20T01:26:08;1.77;;;1.47;;
12196;SDS011;6161;43.014;25.840;2022-11-20T01:28:36;2.47;;;1.40;;
12196;SDS011;6161;43.014;25.840;2022-11-20T01:31:02;4.30;;;1.73;;
12196;SDS011;6161;43.014;25.840;2022-11-20T01:33:37;2.10;;;1.63;;
12196;SDS011;6161;43.014;25.840;2022-11-20T01:36:03;2.13;;;1.57;;
12196;SDS011;6161;43.014;25.840;2022-11-20T01:38:30;4.43;;;1.63;;
12196;SDS011;6161;43.014;25.840;2022-11-20T01:40:55;2.77;;;1.33;;
12196;SDS011;6161;43.014;25.840;2022-11-20T01:43:20;2.83;;;1.40;;
12196;SDS011;6161;43.014;25.840;2022-11-20T01:45:53;2.20;;;1.40;;
12196;SDS011;6161;43.014;25.840;2022-11-20T01:48:21;1.53;;;1.33;;
12196;SDS011;6161;43.014;25.840;2022-11-20T01:50:48;1.73;;;1.50;;
12196;SDS011;6161;43.014;25.840;2022-11-20T01:53:18;1.83;;;1.37;;
12196;SDS011;6161;43.014;25.840;2022-11-20T01:55:49;2.27;;;1.53;;
12196;SDS011;6161;43.014;25.840;2022-11-20T01:58:18;2.83;;;1.50;;
12196;SDS011;6161;43.014;25.840;2022-11-20T02:00:50;2.13;;;1.60;;
12196;SDS011;6161;43.014;25.840;2022-11-20T02:03:16;1.77;;;1.13;;
12196;SDS011;6161;43.014;25.840;2022-11-20T02:08:27;3.70;;;1.80;;
12196;SDS011;6161;43.014;25.840;2022-11-20T02:10:53;3.40;;;1.53;;
12196;SDS011;6161;43.014;25.840;2022-11-20T02:13:18;1.57;;;1.33;;
12196;SDS011;6161;43.014;25.840;2022-11-20T02:16:03;3.77;;;1.50;;
12196;SDS011;6161;43.014;25.840;2022-11-20T02:18:28;3.37;;;1.70;;
12196;SDS011;6161;43.014;25.840;2022-11-20T02:20:56;2.13;;;1.43;;
12196;SDS011;6161;43.014;25.840;2022-11-20T02:26:19;2.27;;;1.40;;
12196;SDS011;6161;43.014;25.840;2022-11-20T02:28:48;2.53;;;1.73;;
12196;SDS011;6161;43.014;25.840;2022-11-20T02:31:13;2.03;;;1.60;;
12196;SDS011;6161;43.014;25.840;2022-11-20T02:33:39;2.90;;;1.30;;
12196;SDS011;6161;43.014;25.840;2022-11-20T02:36:04;2.53;;;1.30;;
12196;SDS011;6161;43.014;25.840;2022-11-20T02:38:30;4.87;;;1.70;;
12196;SDS011;6161;43.014;25.840;2022-11-20T02:40:56;2.23;;;1.57;;
12196;SDS011;6161;43.014;25.840;2022-11-20T02:43:22;2.17;;;1.70;;
12196;SDS011;6161;43.014;25.840;2022-11-20T02:45:48;4.73;;;1.60;;
12196;SDS011;6161;43.014;25.840;2022-11-20T02:48:13;2.30;;;1.23;;
12196;SDS011;6161;43.014;25.840;2022-11-20T02:50:39;2.50;;;1.40;;
12196;SDS011;6161;43.014;25.840;2022-11-20T02:53:05;2.33;;;1.30;;
12196;SDS011;6161;43.014;25.840;2022-11-20T02:55:31;2.70;;;1.33;;
12196;SDS011;6161;43.014;25.840;2022-11-20T02:57:56;1.40;;;1.07;;
12196;SDS011;6161;43.014;25.840;2022-11-20T03:00:21;3.37;;;1.57;;
12196;SDS011;6161;43.014;25.840;2022-11-20T03:02:47;2.00;;;1.47;;
12196;SDS011;6161;43.014;25.840;2022-11-20T03:05:12;1.47;;;1.20;;
12196;SDS011;6161;43.014;25.840;2022-11-20T03:07:38;1.80;;;1.27;;
12196;SDS011;6161;43.014;25.840;2022-11-20T03:10:03;1.97;;;1.00;;
12196;SDS011;6161;43.014;25.840;2022-11-20T03:12:29;1.37;;;0.80;;
12196;SDS011;6161;43.014;25.840;2022-11-20T03:14:55;2.40;;;1.20;;
12196;SDS011;6161;43.014;25.840;2022-11-20T03:17:20;3.30;;;1.07;;
12196;SDS011;6161;43.014;25.840;2022-11-20T03:19:46;0.80;;;0.73;;
12196;SDS011;6161;43.014;25.840;2022-11-20T03:22:11;2.03;;;1.10;;
12196;SDS011;6161;43.014;25.840;2022-11-20T03:24:36;2.17;;;1.20;;
12196;SDS011;6161;43.014;25.840;2022-11-20T03:27:02;2.60;;;1.20;;
12196;SDS011;6161;43.014;25.840;2022-11-20T03:29:27;2.07;;;1.17;;
12196;SDS011;6161;43.014;25.840;2022-11-20T03:31:53;1.63;;;1.07;;
12196;SDS011;6161;43.014;25.840;2022-11-20T03:34:18;1.73;;;1.20;;
12196;SDS011;6161;43.014;25.840;2022-11-20T03:36:44;2.83;;;1.10;;
12196;SDS011;6161;43.014;25.840;2022-11-20T03:39:09;4.93;;;1.27;;
12196;SDS011;6161;43.014;25.840;2022-11-20T03:41:36;3.60;;;1.13;;
12196;SDS011;6161;43.014;25.840;2022-11-20T03:44:02;3.43;;;1.10;;
12196;SDS011;6161;43.014;25.840;2022-11-20T03:46:28;2.47;;;1.10;;
12196;SDS011;6161;43.014;25.840;2022-11-20T03:48:53;4.43;;;1.40;;
12196;SDS011;6161;43.014;25.840;2022-11-20T03:51:28;1.07;;;0.97;;
12196;SDS011;6161;43.014;25.840;2022-11-20T03:53:55;0.83;;;0.83;;
12196;SDS011;6161;43.014;25.840;2022-11-20T03:56:24;1.53;;;1.00;;
12196;SDS011;6161;43.014;25.840;2022-11-20T03:58:49;4.77;;;1.30;;
12196;SDS011;6161;43.014;25.840;2022-11-20T04:01:16;2.87;;;1.00;;
12196;SDS011;6161;43.014;25.840;2022-11-20T04:03:44;1.10;;;0.90;;
12196;SDS011;6161;43.014;25.840;2022-11-20T04:06:20;2.80;;;1.10;;
12196;SDS011;6161;43.014;25.840;2022-11-20T04:08:48;1.27;;;0.80;;
12196;SDS011;6161;43.014;25.840;2022-11-20T04:13:49;3.23;;;1.27;;
12196;SDS011;6161;43.014;25.840;2022-11-20T04:16:19;1.33;;;0.97;;
12196;SDS011;6161;43.014;25.840;2022-11-20T04:18:45;3.83;;;1.03;;
12196;SDS011;6161;43.014;25.840;2022-11-20T04:21:10;3.00;;;1.20;;
12196;SDS011;6161;43.014;25.840;2022-11-20T04:23:36;3.47;;;1.33;;
12196;SDS011;6161;43.014;25.840;2022-11-20T04:26:03;2.50;;;1.10;;
12196;SDS011;6161;43.014;25.840;2022-11-20T04:28:28;8.40;;;1.20;;
12196;SDS011;6161;43.014;25.840;2022-11-20T04:30:53;2.30;;;1.23;;
12196;SDS011;6161;43.014;25.840;2022-11-20T04:33:19;1.20;;;0.90;;
12196;SDS011;6161;43.014;25.840;2022-11-20T04:35:44;2.93;;;1.13;;
12196;SDS011;6161;43.014;25.840;2022-11-20T04:38:12;1.93;;;0.90;;
12196;SDS011;6161;43.014;25.840;2022-11-20T04:40:37;1.40;;;1.10;;
12196;SDS011;6161;43.014;25.840;2022-11-20T04:43:03;1.23;;;0.60;;
12196;SDS011;6161;43.014;25.840;2022-11-20T04:45:28;2.03;;;0.80;;
12196;SDS011;6161;43.014;25.840;2022-11-20T04:47:54;1.73;;;0.87;;
12196;SDS011;6161;43.014;25.840;2022-11-20T04:50:19;1.10;;;0.97;;
12196;SDS011;6161;43.014;25.840;2022-11-20T04:52:44;1.60;;;0.93;;
12196;SDS011;6161;43.014;25.840;2022-11-20T04:55:10;1.23;;;0.90;;
12196;SDS011;6161;43.014;25.840;2022-11-20T04:57:35;1.67;;;0.80;;
12196;SDS011;6161;43.014;25.840;2022-11-20T05:00:00;2.90;;;1.10;;
12196;SDS011;6161;43.014;25.840;2022-11-20T05:02:26;1.00;;;0.90;;
12196;SDS011;6161;43.014;25.840;2022-11-20T05:04:51;0.67;;;0.67;;
12196;SDS011;6161;43.014;25.840;2022-11-20T05:07:16;1.83;;;0.90;;
12196;SDS011;6161;43.014;25.840;2022-11-20T05:09:42;2.03;;;1.00;;
12196;SDS011;6161;43.014;25.840;2022-11-20T05:12:08;1.93;;;1.23;;
12196;SDS011;6161;43.014;25.840;2022-11-20T05:14:34;0.60;;;0.60;;
12196;SDS011;6161;43.014;25.840;2022-11-20T05:17:02;3.63;;;0.90;;
12196;SDS011;6161;43.014;25.840;2022-11-20T05:19:27;1.70;;;0.80;;
12196;SDS011;6161;43.014;25.840;2022-11-20T05:21:53;1.00;;;0.90;;
12196;SDS011;6161;43.014;25.840;2022-11-20T05:24:18;3.37;;;1.07;;
12196;SDS011;6161;43.014;25.840;2022-11-20T05:26:44;0.77;;;0.73;;
12196;SDS011;6161;43.014;25.840;2022-11-20T05:29:12;2.80;;;1.23;;
12196;SDS011;6161;43.014;25.840;2022-11-20T05:31:38;3.03;;;1.00;;
12196;SDS011;6161;43.014;25.840;2022-11-20T05:34:05;2.80;;;1.37;;
12196;SDS011;6161;43.014;25.840;2022-11-20T05:36:31;2.70;;;1.07;;
12196;SDS011;6161;43.014;25.840;2022-11-20T05:38:56;3.40;;;0.90;;
12196;SDS011;6161;43.014;25.840;2022-11-20T05:41:22;1.70;;;0.80;;
12196;SDS011;6161;43.014;25.840;2022-11-20T05:43:48;2.50;;;1.00;;
12196;SDS011;6161;43.014;25.840;2022-11-20T05:46:16;1.77;;;0.97;;
12196;SDS011;6161;43.014;25.840;2022-11-20T05:48:43;3.90;;;0.80;;
12196;SDS011;6161;43.014;25.840;2022-11-20T05:51:11;1.57;;;0.90;;
12196;SDS011;6161;43.014;25.840;2022-11-20T05:53:36;1.93;;;1.00;;
12196;SDS011;6161;43.014;25.840;2022-11-20T05:56:12;1.87;;;0.90;;
12196;SDS011;6161;43.014;25.840;2022-11-20T05:58:39;2.23;;;1.07;;
12196;SDS011;6161;43.014;25.840;2022-11-20T06:01:15;1.10;;;0.73;;
12196;SDS011;6161;43.014;25.840;2022-11-20T06:03:45;2.03;;;1.00;;
12196;SDS011;6161;43.014;25.840;2022-11-20T06:06:12;6.43;;;1.77;;
12196;SDS011;6161;43.014;25.840;2022-11-20T06:08:38;1.63;;;1.10;;
12196;SDS011;6161;43.014;25.840;2022-11-20T06:11:04;1.63;;;0.80;;
12196;SDS011;6161;43.014;25.840;2022-11-20T06:13:30;2.27;;;0.80;;
12196;SDS011;6161;43.014;25.840;2022-11-20T06:15:55;1.20;;;0.97;;
12196;SDS011;6161;43.014;25.840;2022-11-20T06:18:20;2.10;;;0.70;;
12196;SDS011;6161;43.014;25.840;2022-11-20T06:20:46;1.93;;;1.13;;
12196;SDS011;6161;43.014;25.840;2022-11-20T06:23:11;2.80;;;0.83;;
12196;SDS011;6161;43.014;25.840;2022-11-20T06:25:40;2.10;;;0.93;;
12196;SDS011;6161;43.014;25.840;2022-11-20T06:28:06;3.57;;;0.93;;
12196;SDS011;6161;43.014;25.840;2022-11-20T06:30:32;1.60;;;0.80;;
12196;SDS011;6161;43.014;25.840;2022-11-20T06:32:57;1.67;;;0.73;;
12196;SDS011;6161;43.014;25.840;2022-11-20T06:35:23;3.37;;;1.33;;
12196;SDS011;6161;43.014;25.840;2022-11-20T06:37:48;2.87;;;1.40;;
12196;SDS011;6161;43.014;25.840;2022-11-20T06:40:13;0.80;;;0.80;;
12196;SDS011;6161;43.014;25.840;2022-11-20T06:42:39;1.47;;;0.70;;
12196;SDS011;6161;43.014;25.840;2022-11-20T06:45:04;2.97;;;0.97;;
12196;SDS011;6161;43.014;25.840;2022-11-20T06:47:30;4.30;;;1.50;;
12196;SDS011;6161;43.014;25.840;2022-11-20T06:49:55;4.63;;;1.37;;
12196;SDS011;6161;43.014;25.840;2022-11-20T06:52:20;2.70;;;1.07;;
12196;SDS011;6161;43.014;25.840;2022-11-20T06:54:46;2.20;;;0.90;;
12196;SDS011;6161;43.014;25.840;2022-11-20T06:57:11;0.90;;;0.73;;
12196;SDS011;6161;43.014;25.840;2022-11-20T06:59:36;3.57;;;0.87;;
12196;SDS011;6161;43.014;25.840;2022-11-20T07:02:02;2.47;;;1.67;;
12196;SDS011;6161;43.014;25.840;2022-11-20T07:04:27;2.10;;;0.97;;
12196;SDS011;6161;43.014;25.840;2022-11-20T07:06:53;1.37;;;0.80;;
12196;SDS011;6161;43.014;25.840;2022-11-20T07:09:18;1.73;;;0.97;;
12196;SDS011;6161;43.014;25.840;2022-11-20T07:11:44;1.17;;;0.93;;
12196;SDS011;6161;43.014;25.840;2022-11-20T07:14:09;4.90;;;1.20;;
12196;SDS011;6161;43.014;25.840;2022-11-20T07:16:35;3.73;;;1.70;;
12196;SDS011;6161;43.014;25.840;2022-11-20T07:19:00;3.93;;;2.40;;
12196;SDS011;6161;43.014;25.840;2022-11-20T07:21:26;3.53;;;2.90;;
12196;SDS011;6161;43.014;25.840;2022-11-20T07:23:51;3.50;;;2.50;;
12196;SDS011;6161;43.014;25.840;2022-11-20T07:26:17;2.90;;;2.60;;
12196;SDS011;6161;43.014;25.840;2022-11-20T07:28:44;3.50;;;3.13;;
12196;SDS011;6161;43.014;25.840;2022-11-20T07:31:10;3.87;;;3.03;;
12196;SDS011;6161;43.014;25.840;2022-11-20T07:33:37;4.63;;;3.43;;
12196;SDS011;6161;43.014;25.840;2022-11-20T07:36:02;7.37;;;3.80;;
12196;SDS011;6161;43.014;25.840;2022-11-20T07:38:28;4.70;;;3.97;;
12196;SDS011;6161;43.014;25.840;2022-11-20T07:40:53;6.93;;;4.70;;
12196;SDS011;6161;43.014;25.840;2022-11-20T07:43:19;7.50;;;4.90;;
12196;SDS011;6161;43.014;25.840;2022-11-20T07:45:44;6.70;;;4.97;;
12196;SDS011;6161;43.014;25.840;2022-11-20T07:48:10;7.17;;;5.43;;
12196;SDS011;6161;43.014;25.840;2022-11-20T07:50:35;10.73;;;6.67;;
12196;SDS011;6161;43.014;25.840;2022-11-20T07:53:02;9.63;;;6.40;;
12196;SDS011;6161;43.014;25.840;2022-11-20T07:55:28;8.83;;;6.17;;
12196;SDS011;6161;43.014;25.840;2022-11-20T07:57:54;10.47;;;5.97;;
12196;SDS011;6161;43.014;25.840;2022-11-20T08:00:19;11.57;;;7.27;;
12196;SDS011;6161;43.014;25.840;2022-11-20T08:02:45;11.13;;;6.60;;
12196;SDS011;6161;43.014;25.840;2022-11-20T08:05:10;9.27;;;6.67;;
12196;SDS011;6161;43.014;25.840;2022-11-20T08:07:39;10.67;;;7.00;;
12196;SDS011;6161;43.014;25.840;2022-11-20T08:10:05;10.33;;;7.37;;
12196;SDS011;6161;43.014;25.840;2022-11-20T08:12:31;12.27;;;8.03;;
12196;SDS011;6161;43.014;25.840;2022-11-20T08:15:15;11.20;;;7.57;;
12196;SDS011;6161;43.014;25.840;2022-11-20T08:17:40;13.03;;;8.13;;
12196;SDS011;6161;43.014;25.840;2022-11-20T08:20:05;15.40;;;7.30;;
12196;SDS011;6161;43.014;25.840;2022-11-20T08:22:31;11.27;;;7.07;;
12196;SDS011;6161;43.014;25.840;2022-11-20T08:24:56;12.20;;;7.90;;
12196;SDS011;6161;43.014;25.840;2022-11-20T08:27:22;11.37;;;6.77;;
12196;SDS011;6161;43.014;25.840;2022-11-20T08:29:48;13.50;;;6.87;;
12196;SDS011;6161;43.014;25.840;2022-11-20T08:32:13;8.30;;;6.17;;
12196;SDS011;6161;43.014;25.840;2022-11-20T08:34:38;9.53;;;6.00;;
12196;SDS011;6161;43.014;25.840;2022-11-20T08:37:04;8.97;;;6.23;;
12196;SDS011;6161;43.014;25.840;2022-11-20T08:39:29;9.97;;;6.23;;
12196;SDS011;6161;43.014;25.840;2022-11-20T08:41:54;10.00;;;6.23;;
12196;SDS011;6161;43.014;25.840;2022-11-20T08:44:20;9.97;;;5.63;;
12196;SDS011;6161;43.014;25.840;2022-11-20T08:46:45;7.90;;;5.53;;
12196;SDS011;6161;43.014;25.840;2022-11-20T08:49:12;11.87;;;6.17;;
12196;SDS011;6161;43.014;25.840;2022-11-20T08:51:38;8.87;;;5.80;;
12196;SDS011;6161;43.014;25.840;2022-11-20T08:54:04;8.63;;;6.00;;
12196;SDS011;6161;43.014;25.840;2022-11-20T08:56:31;9.13;;;5.73;;
12196;SDS011;6161;43.014;25.840;2022-11-20T08:58:57;9.87;;;6.87;;
12196;SDS011;6161;43.014;25.840;2022-11-20T09:01:24;10.43;;;6.47;;
12196;SDS011;6161;43.014;25.840;2022-11-20T09:03:50;10.07;;;6.97;;
12196;SDS011;6161;43.014;25.840;2022-11-20T09:06:15;10.67;;;6.37;;
12196;SDS011;6161;43.014;25.840;2022-11-20T09:08:41;11.93;;;6.97;;
12196;SDS011;6161;43.014;25.840;2022-11-20T09:11:06;13.13;;;7.13;;
12196;SDS011;6161;43.014;25.840;2022-11-20T09:13:33;12.80;;;7.67;;
12196;SDS011;6161;43.014;25.840;2022-11-20T09:16:00;11.37;;;7.07;;
12196;SDS011;6161;43.014;25.840;2022-11-20T09:18:28;13.20;;;7.20;;
12196;SDS011;6161;43.014;25.840;2022-11-20T09:21:00;14.70;;;7.77;;
12196;SDS011;6161;43.014;25.840;2022-11-20T09:23:26;11.67;;;7.33;;
12196;SDS011;6161;43.014;25.840;2022-11-20T09:25:55;12.03;;;7.30;;
12196;SDS011;6161;43.014;25.840;2022-11-20T09:28:24;10.80;;;8.13;;
12196;SDS011;6161;43.014;25.840;2022-11-20T09:30:50;13.43;;;7.90;;
12196;SDS011;6161;43.014;25.840;2022-11-20T09:33:15;11.10;;;8.07;;
12196;SDS011;6161;43.014;25.840;2022-11-20T09:35:41;13.50;;;7.97;;
12196;SDS011;6161;43.014;25.840;2022-11-20T09:38:06;12.10;;;8.13;;
12196;SDS011;6161;43.014;25.840;2022-11-20T09:40:32;12.23;;;7.70;;
12196;SDS011;6161;43.014;25.840;2022-11-20T09:43:03;12.43;;;8.17;;
12196;SDS011;6161;43.014;25.840;2022-11-20T09:56:25;15.57;;;8.43;;
12196;SDS011;6161;43.014;25.840;2022-11-20T09:58:51;13.23;;;8.00;;
12196;SDS011;6161;43.014;25.840;2022-11-20T10:01:18;11.03;;;7.57;;
12196;SDS011;6161;43.014;25.840;2022-11-20T10:06:30;13.07;;;6.80;;
12196;SDS011;6161;43.014;25.840;2022-11-20T10:11:29;13.50;;;8.13;;
12196;SDS011;6161;43.014;25.840;2022-11-20T10:17:02;12.30;;;7.77;;
12196;SDS011;6161;43.014;25.840;2022-11-20T10:24:55;11.23;;;6.87;;
12196;SDS011;6161;43.014;25.840;2022-11-20T10:29:53;11.13;;;6.73;;
12196;SDS011;6161;43.014;25.840;2022-11-20T10:32:28;14.17;;;6.93;;
12196;SDS011;6161;43.014;25.840;2022-11-20T10:34:59;9.23;;;6.57;;
12196;SDS011;6161;43.014;25.840;2022-11-20T10:37:30;10.10;;;6.40;;
12196;SDS011;6161;43.014;25.840;2022-11-20T10:42:42;8.33;;;5.87;;
12196;SDS011;6161;43.014;25.840;2022-11-20T10:50:32;12.00;;;6.33;;
12196;SDS011;6161;43.014;25.840;2022-11-20T10:53:06;8.63;;;6.00;;
12196;SDS011;6161;43.014;25.840;2022-11-20T10:58:20;7.67;;;5.53;;
12196;SDS011;6161;43.014;25.840;2022-11-20T11:00:48;8.80;;;6.07;;
12196;SDS011;6161;43.014;25.840;2022-11-20T11:03:26;8.43;;;5.93;;
12196;SDS011;6161;43.014;25.840;2022-11-20T11:06:08;8.13;;;5.70;;
12196;SDS011;6161;43.014;25.840;2022-11-20T11:08:50;9.17;;;6.13;;
12196;SDS011;6161;43.014;25.840;2022-11-20T11:11:23;7.83;;;5.70;;
12196;SDS011;6161;43.014;25.840;2022-11-20T11:13:49;10.83;;;6.57;;
12196;SDS011;6161;43.014;25.840;2022-11-20T11:16:19;9.13;;;6.10;;
12196;SDS011;6161;43.014;25.840;2022-11-20T11:18:45;8.80;;;5.93;;
12196;SDS011;6161;43.014;25.840;2022-11-20T11:21:10;9.27;;;5.73;;
12196;SDS011;6161;43.014;25.840;2022-11-20T11:23:39;6.23;;;5.10;;
12196;SDS011;6161;43.014;25.840;2022-11-20T11:26:06;8.50;;;5.93;;
12196;SDS011;6161;43.014;25.840;2022-11-20T11:28:31;9.17;;;5.80;;
12196;SDS011;6161;43.014;25.840;2022-11-20T11:30:59;7.13;;;5.30;;
12196;SDS011;6161;43.014;25.840;2022-11-20T11:33:25;9.97;;;6.00;;
12196;SDS011;6161;43.014;25.840;2022-11-20T11:36:03;7.97;;;5.27;;
12196;SDS011;6161;43.014;25.840;2022-11-20T11:38:42;7.13;;;5.17;;
12196;SDS011;6161;43.014;25.840;2022-11-20T11:41:09;7.73;;;4.87;;
12196;SDS011;6161;43.014;25.840;2022-11-20T11:43:36;6.40;;;5.47;;
12196;SDS011;6161;43.014;25.840;2022-11-20T11:46:29;7.87;;;5.97;;
12196;SDS011;6161;43.014;25.840;2022-11-20T11:49:11;7.07;;;4.70;;
12196;SDS011;6161;43.014;25.840;2022-11-20T11:51:41;7.17;;;5.00;;
12196;SDS011;6161;43.014;25.840;2022-11-20T11:54:22;5.90;;;4.63;;
12196;SDS011;6161;43.014;25.840;2022-11-20T11:56:51;6.70;;;4.77;;
12196;SDS011;6161;43.014;25.840;2022-11-20T11:59:25;7.00;;;5.07;;
12196;SDS011;6161;43.014;25.840;2022-11-20T12:01:53;5.53;;;4.47;;
12196;SDS011;6161;43.014;25.840;2022-11-20T12:07:03;9.73;;;6.37;;
12196;SDS011;6161;43.014;25.840;2022-11-20T12:09:37;7.43;;;5.13;;
12196;SDS011;6161;43.014;25.840;2022-11-20T12:12:15;6.23;;;4.80;;
12196;SDS011;6161;43.014;25.840;2022-11-20T12:14:46;7.40;;;5.33;;
12196;SDS011;6161;43.014;25.840;2022-11-20T12:17:12;5.93;;;4.60;;
12196;SDS011;6161;43.014;25.840;2022-11-20T12:19:38;8.27;;;5.23;;
12196;SDS011;6161;43.014;25.840;2022-11-20T12:37:48;8.20;;;5.37;;
12196;SDS011;6161;43.014;25.840;2022-11-20T12:40:27;6.67;;;4.53;;
12196;SDS011;6161;43.014;25.840;2022-11-20T12:43:00;5.63;;;4.60;;
12196;SDS011;6161;43.014;25.840;2022-11-20T13:06:52;7.20;;;5.37;;
12196;SDS011;6161;43.014;25.840;2022-11-20T13:09:19;8.93;;;5.93;;
12196;SDS011;6161;43.014;25.840;2022-11-20T13:14:35;9.37;;;6.10;;
12196;SDS011;6161;43.014;25.840;2022-11-20T13:19:28;9.00;;;6.23;;
12196;SDS011;6161;43.014;25.840;2022-11-20T13:21:54;7.57;;;5.47;;
12196;SDS011;6161;43.014;25.840;2022-11-20T13:26:48;7.87;;;5.43;;
12196;SDS011;6161;43.014;25.840;2022-11-20T13:29:17;6.70;;;5.03;;
12196;SDS011;6161;43.014;25.840;2022-11-20T13:31:44;7.33;;;5.37;;
12196;SDS011;6161;43.014;25.840;2022-11-20T13:34:11;7.03;;;5.50;;
12196;SDS011;6161;43.014;25.840;2022-11-20T13:36:38;9.53;;;7.43;;
12196;SDS011;6161;43.014;25.840;2022-11-20T13:39:23;12.87;;;8.30;;
12196;SDS011;6161;43.014;25.840;2022-11-20T13:41:53;7.77;;;5.93;;
12196;SDS011;6161;43.014;25.840;2022-11-20T13:46:52;8.40;;;5.80;;
12196;SDS011;6161;43.014;25.840;2022-11-20T13:49:25;7.43;;;5.67;;
12196;SDS011;6161;43.014;25.840;2022-11-20T13:51:54;8.53;;;5.53;;
12196;SDS011;6161;43.014;25.840;2022-11-20T13:59:35;8.40;;;6.23;;
12196;SDS011;6161;43.014;25.840;2022-11-20T14:02:05;10.90;;;6.77;;
12196;SDS011;6161;43.014;25.840;2022-11-20T14:04:34;8.63;;;5.40;;
12196;SDS011;6161;43.014;25.840;2022-11-20T14:07:01;8.37;;;5.73;;
12196;SDS011;6161;43.014;25.840;2022-11-20T14:09:32;8.67;;;5.57;;
12196;SDS011;6161;43.014;25.840;2022-11-20T14:11:57;7.80;;;6.40;;
12196;SDS011;6161;43.014;25.840;2022-11-20T14:14:24;7.63;;;6.00;;
12196;SDS011;6161;43.014;25.840;2022-11-20T14:16:51;7.17;;;5.93;;
12196;SDS011;6161;43.014;25.840;2022-11-20T14:21:48;8.30;;;6.20;;
12196;SDS011;6161;43.014;25.840;2022-11-20T14:24:18;8.20;;;6.47;;
12196;SDS011;6161;43.014;25.840;2022-11-20T14:26:44;10.20;;;6.47;;
12196;SDS011;6161;43.014;25.840;2022-11-20T14:29:20;8.23;;;6.73;;
12196;SDS011;6161;43.014;25.840;2022-11-20T14:31:47;9.43;;;6.57;;
12196;SDS011;6161;43.014;25.840;2022-11-20T14:34:15;8.60;;;5.93;;
12196;SDS011;6161;43.014;25.840;2022-11-20T14:36:40;7.07;;;5.60;;
12196;SDS011;6161;43.014;25.840;2022-11-20T14:39:09;7.57;;;5.50;;
12196;SDS011;6161;43.014;25.840;2022-11-20T14:41:36;8.93;;;5.90;;
12196;SDS011;6161;43.014;25.840;2022-11-20T14:44:01;7.77;;;6.50;;
12196;SDS011;6161;43.014;25.840;2022-11-20T14:46:27;9.93;;;6.60;;
12196;SDS011;6161;43.014;25.840;2022-11-20T14:48:56;7.47;;;6.43;;
12196;SDS011;6161;43.014;25.840;2022-11-20T14:51:27;9.93;;;6.80;;
12196;SDS011;6161;43.014;25.840;2022-11-20T14:53:53;8.93;;;7.07;;
12196;SDS011;6161;43.014;25.840;2022-11-20T14:56:24;10.73;;;7.43;;
12196;SDS011;6161;43.014;25.840;2022-11-20T14:58:56;8.23;;;6.37;;
12196;SDS011;6161;43.014;25.840;2022-11-20T15:01:25;9.37;;;6.87;;
12196;SDS011;6161;43.014;25.840;2022-11-20T15:04:01;10.90;;;7.23;;
12196;SDS011;6161;43.014;25.840;2022-11-20T15:06:27;9.00;;;6.60;;
12196;SDS011;6161;43.014;25.840;2022-11-20T15:08:53;9.67;;;6.90;;
12196;SDS011;6161;43.014;25.840;2022-11-20T15:11:19;9.33;;;6.73;;
12196;SDS011;6161;43.014;25.840;2022-11-20T15:13:50;8.13;;;6.33;;
12196;SDS011;6161;43.014;25.840;2022-11-20T15:16:17;12.53;;;6.50;;
12196;SDS011;6161;43.014;25.840;2022-11-20T15:18:43;8.53;;;6.53;;
12196;SDS011;6161;43.014;25.840;2022-11-20T15:21:10;11.87;;;7.70;;
12196;SDS011;6161;43.014;25.840;2022-11-20T15:23:36;7.80;;;6.20;;
12196;SDS011;6161;43.014;25.840;2022-11-20T15:26:01;8.40;;;6.73;;
12196;SDS011;6161;43.014;25.840;2022-11-20T15:30:52;12.03;;;7.93;;
12196;SDS011;6161;43.014;25.840;2022-11-20T15:33:17;8.53;;;6.40;;
12196;SDS011;6161;43.014;25.840;2022-11-20T15:35:44;7.60;;;5.60;;
12196;SDS011;6161;43.014;25.840;2022-11-20T15:38:09;6.60;;;5.43;;
12196;SDS011;6161;43.014;25.840;2022-11-20T15:40:35;6.67;;;4.03;;
12196;SDS011;6161;43.014;25.840;2022-11-20T15:43:00;5.73;;;4.57;;
12196;SDS011;6161;43.014;25.840;2022-11-20T15:45:38;5.50;;;4.53;;
12196;SDS011;6161;43.014;25.840;2022-11-20T15:48:08;4.30;;;3.77;;
12196;SDS011;6161;43.014;25.840;2022-11-20T15:50:36;5.23;;;4.20;;
12196;SDS011;6161;43.014;25.840;2022-11-20T15:53:08;6.27;;;3.83;;
12196;SDS011;6161;43.014;25.840;2022-11-20T15:55:34;4.83;;;3.30;;
12196;SDS011;6161;43.014;25.840;2022-11-20T15:57:59;5.13;;;3.37;;
12196;SDS011;6161;43.014;25.840;2022-11-20T16:00:25;5.50;;;3.70;;
12196;SDS011;6161;43.014;25.840;2022-11-20T16:02:50;4.27;;;3.50;;
12196;SDS011;6161;43.014;25.840;2022-11-20T16:05:15;4.13;;;3.27;;
12196;SDS011;6161;43.014;25.840;2022-11-20T16:07:42;3.93;;;2.90;;
12196;SDS011;6161;43.014;25.840;2022-11-20T16:10:07;4.50;;;3.17;;
12196;SDS011;6161;43.014;25.840;2022-11-20T16:12:33;4.23;;;3.23;;
12196;SDS011;6161;43.014;25.840;2022-11-20T16:15:17;5.50;;;3.90;;
12196;SDS011;6161;43.014;25.840;2022-11-20T16:18:01;6.13;;;4.67;;
12196;SDS011;6161;43.014;25.840;2022-11-20T16:20:26;4.20;;;3.80;;
12196;SDS011;6161;43.014;25.840;2022-11-20T16:22:52;4.37;;;3.57;;
12196;SDS011;6161;43.014;25.840;2022-11-20T16:25:17;5.43;;;3.17;;
12196;SDS011;6161;43.014;25.840;2022-11-20T16:27:42;3.23;;;2.90;;
12196;SDS011;6161;43.014;25.840;2022-11-20T16:30:08;3.20;;;2.63;;
12196;SDS011;6161;43.014;25.840;2022-11-20T16:32:33;2.53;;;2.33;;
12196;SDS011;6161;43.014;25.840;2022-11-20T16:34:59;2.80;;;2.60;;